Ackley, Iowa
Current Conditions -  °F | °C
As of 12:15 AM on Wednesday 28 Jan 2015 (Local Time) from KIFA Reporting Station
Haze Haze  
Wind Chill: -7°   Ceiling: 600
Heat Index: -1°   Visibility: 5mi
Dew Point: -3°   Wind: 15mph
Humidity: 92%   Direction: 120°ESE
Pressure: 30.13"   Gusts: NA
Location:  42.55°N, 93.05°W
Report Text: KIFA 280615Z AUTO 12013KT 5SM BR OVC006 M01/M02 A3013 RMK AO2 T10131025
Loading
Personal Weather Stations






























Interactive Weather Map New forecast layout! Learn more

10-Day Weather Forecast

Advertisements
Track Severe Weather on mobile